sensor_id;sensor_type;location;lat;lon;timestamp;P1;durP1;ratioP1;P2;durP2;ratioP2
54261;SDS011;40174;52.364;6.452;2023-03-23T00:02:13;5.93;;;2.80;;
54261;SDS011;40174;52.364;6.452;2023-03-23T00:04:39;6.97;;;3.03;;
54261;SDS011;40174;52.364;6.452;2023-03-23T00:07:07;6.30;;;2.67;;
54261;SDS011;40174;52.364;6.452;2023-03-23T00:09:35;7.57;;;2.45;;
54261;SDS011;40174;52.364;6.452;2023-03-23T00:12:06;7.03;;;2.65;;
54261;SDS011;40174;52.364;6.452;2023-03-23T00:14:34;6.55;;;2.90;;
54261;SDS011;40174;52.364;6.452;2023-03-23T00:17:06;9.55;;;3.00;;
54261;SDS011;40174;52.364;6.452;2023-03-23T00:19:35;7.55;;;2.28;;
54261;SDS011;40174;52.364;6.452;2023-03-23T00:22:10;6.43;;;2.63;;
54261;SDS011;40174;52.364;6.452;2023-03-23T00:24:39;7.55;;;2.67;;
54261;SDS011;40174;52.364;6.452;2023-03-23T00:27:06;7.22;;;3.03;;
54261;SDS011;40174;52.364;6.452;2023-03-23T00:29:34;6.50;;;2.45;;
54261;SDS011;40174;52.364;6.452;2023-03-23T00:32:01;8.95;;;2.78;;
54261;SDS011;40174;52.364;6.452;2023-03-23T00:34:31;6.65;;;2.55;;
54261;SDS011;40174;52.364;6.452;2023-03-23T00:36:59;6.63;;;2.80;;
54261;SDS011;40174;52.364;6.452;2023-03-23T00:39:26;7.65;;;3.00;;
54261;SDS011;40174;52.364;6.452;2023-03-23T00:41:55;8.88;;;2.72;;
54261;SDS011;40174;52.364;6.452;2023-03-23T00:44:26;7.30;;;2.55;;
54261;SDS011;40174;52.364;6.452;2023-03-23T00:46:53;6.32;;;2.47;;
54261;SDS011;40174;52.364;6.452;2023-03-23T00:49:21;11.15;;;2.75;;
54261;SDS011;40174;52.364;6.452;2023-03-23T00:51:51;5.78;;;2.70;;
54261;SDS011;40174;52.364;6.452;2023-03-23T00:54:18;5.20;;;2.47;;
54261;SDS011;40174;52.364;6.452;2023-03-23T00:56:48;7.28;;;2.70;;
54261;SDS011;40174;52.364;6.452;2023-03-23T00:59:17;5.70;;;2.25;;
54261;SDS011;40174;52.364;6.452;2023-03-23T01:01:44;6.80;;;2.42;;
54261;SDS011;40174;52.364;6.452;2023-03-23T01:04:12;8.50;;;2.83;;
54261;SDS011;40174;52.364;6.452;2023-03-23T01:06:40;6.18;;;2.50;;
54261;SDS011;40174;52.364;6.452;2023-03-23T01:09:09;7.53;;;2.38;;
54261;SDS011;40174;52.364;6.452;2023-03-23T01:11:40;9.48;;;2.65;;
54261;SDS011;40174;52.364;6.452;2023-03-23T01:14:07;10.70;;;2.88;;
54261;SDS011;40174;52.364;6.452;2023-03-23T01:16:35;5.53;;;2.50;;
54261;SDS011;40174;52.364;6.452;2023-03-23T01:19:02;7.97;;;2.38;;
54261;SDS011;40174;52.364;6.452;2023-03-23T01:21:29;8.57;;;2.80;;
54261;SDS011;40174;52.364;6.452;2023-03-23T01:23:56;7.88;;;2.63;;
54261;SDS011;40174;52.364;6.452;2023-03-23T01:26:24;6.18;;;2.50;;
54261;SDS011;40174;52.364;6.452;2023-03-23T01:28:52;5.80;;;2.58;;
54261;SDS011;40174;52.364;6.452;2023-03-23T01:31:20;6.97;;;2.38;;
54261;SDS011;40174;52.364;6.452;2023-03-23T01:33:49;8.95;;;2.42;;
54261;SDS011;40174;52.364;6.452;2023-03-23T01:36:19;7.47;;;2.53;;
54261;SDS011;40174;52.364;6.452;2023-03-23T01:38:48;8.32;;;2.45;;
54261;SDS011;40174;52.364;6.452;2023-03-23T01:41:15;4.40;;;1.90;;
54261;SDS011;40174;52.364;6.452;2023-03-23T01:43:53;5.97;;;2.08;;
54261;SDS011;40174;52.364;6.452;2023-03-23T01:46:27;5.70;;;1.90;;
54261;SDS011;40174;52.364;6.452;2023-03-23T01:48:55;6.85;;;2.38;;
54261;SDS011;40174;52.364;6.452;2023-03-23T01:51:24;5.07;;;1.92;;
54261;SDS011;40174;52.364;6.452;2023-03-23T01:53:54;7.38;;;2.20;;
54261;SDS011;40174;52.364;6.452;2023-03-23T01:56:24;8.25;;;2.38;;
54261;SDS011;40174;52.364;6.452;2023-03-23T01:58:58;10.02;;;2.83;;
54261;SDS011;40174;52.364;6.452;2023-03-23T02:01:25;6.63;;;2.20;;
54261;SDS011;40174;52.364;6.452;2023-03-23T02:03:54;6.55;;;2.38;;
54261;SDS011;40174;52.364;6.452;2023-03-23T02:06:24;5.93;;;2.20;;
54261;SDS011;40174;52.364;6.452;2023-03-23T02:09:05;8.10;;;2.40;;
54261;SDS011;40174;52.364;6.452;2023-03-23T02:11:36;4.50;;;1.85;;
54261;SDS011;40174;52.364;6.452;2023-03-23T02:14:03;6.32;;;1.80;;
54261;SDS011;40174;52.364;6.452;2023-03-23T02:16:33;7.30;;;2.35;;
54261;SDS011;40174;52.364;6.452;2023-03-23T02:19:13;5.70;;;1.92;;
54261;SDS011;40174;52.364;6.452;2023-03-23T02:24:57;6.45;;;2.10;;
54261;SDS011;40174;52.364;6.452;2023-03-23T02:30:52;8.05;;;2.22;;
54261;SDS011;40174;52.364;6.452;2023-03-23T02:33:40;6.40;;;2.53;;
54261;SDS011;40174;52.364;6.452;2023-03-23T02:36:16;3.83;;;1.95;;
54261;SDS011;40174;52.364;6.452;2023-03-23T02:38:53;6.53;;;2.20;;
54261;SDS011;40174;52.364;6.452;2023-03-23T02:41:25;9.93;;;2.38;;
54261;SDS011;40174;52.364;6.452;2023-03-23T02:43:56;5.10;;;1.83;;
54261;SDS011;40174;52.364;6.452;2023-03-23T02:46:23;3.80;;;1.98;;
54261;SDS011;40174;52.364;6.452;2023-03-23T02:48:53;5.65;;;2.03;;
54261;SDS011;40174;52.364;6.452;2023-03-23T02:51:22;6.78;;;2.15;;
54261;SDS011;40174;52.364;6.452;2023-03-23T02:53:50;5.10;;;2.15;;
54261;SDS011;40174;52.364;6.452;2023-03-23T02:56:20;6.78;;;2.05;;
54261;SDS011;40174;52.364;6.452;2023-03-23T02:58:49;4.63;;;2.15;;
54261;SDS011;40174;52.364;6.452;2023-03-23T03:01:45;5.40;;;2.05;;
54261;SDS011;40174;52.364;6.452;2023-03-23T03:04:18;6.28;;;2.33;;
54261;SDS011;40174;52.364;6.452;2023-03-23T03:06:50;4.88;;;2.15;;
54261;SDS011;40174;52.364;6.452;2023-03-23T03:11:55;7.22;;;3.13;;
54261;SDS011;40174;52.364;6.452;2023-03-23T03:14:26;5.20;;;2.03;;
54261;SDS011;40174;52.364;6.452;2023-03-23T03:17:00;4.82;;;2.20;;
54261;SDS011;40174;52.364;6.452;2023-03-23T03:19:31;4.85;;;2.25;;
54261;SDS011;40174;52.364;6.452;2023-03-23T03:22:02;7.10;;;2.47;;
54261;SDS011;40174;52.364;6.452;2023-03-23T03:24:40;6.78;;;2.10;;
54261;SDS011;40174;52.364;6.452;2023-03-23T03:27:10;4.63;;;2.17;;
54261;SDS011;40174;52.364;6.452;2023-03-23T03:29:44;5.90;;;2.35;;
54261;SDS011;40174;52.364;6.452;2023-03-23T03:32:18;6.50;;;2.60;;
54261;SDS011;40174;52.364;6.452;2023-03-23T03:34:50;5.07;;;2.20;;
54261;SDS011;40174;52.364;6.452;2023-03-23T03:37:17;6.60;;;2.40;;
54261;SDS011;40174;52.364;6.452;2023-03-23T03:39:46;6.88;;;2.38;;
54261;SDS011;40174;52.364;6.452;2023-03-23T03:42:13;5.25;;;2.25;;
54261;SDS011;40174;52.364;6.452;2023-03-23T03:44:40;4.70;;;2.30;;
54261;SDS011;40174;52.364;6.452;2023-03-23T03:47:06;6.65;;;2.20;;
54261;SDS011;40174;52.364;6.452;2023-03-23T03:49:34;5.80;;;2.50;;
54261;SDS011;40174;52.364;6.452;2023-03-23T03:52:01;5.97;;;2.35;;
54261;SDS011;40174;52.364;6.452;2023-03-23T03:54:38;9.07;;;2.63;;
54261;SDS011;40174;52.364;6.452;2023-03-23T03:57:05;5.32;;;2.60;;
54261;SDS011;40174;52.364;6.452;2023-03-23T03:59:59;5.93;;;2.90;;
54261;SDS011;40174;52.364;6.452;2023-03-23T04:02:41;5.60;;;2.20;;
54261;SDS011;40174;52.364;6.452;2023-03-23T04:05:12;5.68;;;2.35;;
54261;SDS011;40174;52.364;6.452;2023-03-23T04:07:40;6.05;;;2.15;;
54261;SDS011;40174;52.364;6.452;2023-03-23T04:10:08;7.53;;;2.30;;
54261;SDS011;40174;52.364;6.452;2023-03-23T04:12:36;4.03;;;1.98;;
54261;SDS011;40174;52.364;6.452;2023-03-23T04:15:29;6.68;;;1.90;;
54261;SDS011;40174;52.364;6.452;2023-03-23T04:17:56;4.55;;;2.20;;
54261;SDS011;40174;52.364;6.452;2023-03-23T04:20:25;6.03;;;2.45;;
54261;SDS011;40174;52.364;6.452;2023-03-23T04:22:52;4.78;;;2.20;;
54261;SDS011;40174;52.364;6.452;2023-03-23T04:25:21;4.75;;;2.20;;
54261;SDS011;40174;52.364;6.452;2023-03-23T04:27:51;4.70;;;1.90;;
54261;SDS011;40174;52.364;6.452;2023-03-23T04:30:23;4.80;;;2.35;;
54261;SDS011;40174;52.364;6.452;2023-03-23T04:33:05;5.70;;;2.30;;
54261;SDS011;40174;52.364;6.452;2023-03-23T04:35:33;8.43;;;2.67;;
54261;SDS011;40174;52.364;6.452;2023-03-23T04:38:12;5.60;;;2.30;;
54261;SDS011;40174;52.364;6.452;2023-03-23T04:40:42;9.30;;;2.45;;
54261;SDS011;40174;52.364;6.452;2023-03-23T04:43:25;5.82;;;2.22;;
54261;SDS011;40174;52.364;6.452;2023-03-23T04:46:03;8.15;;;2.25;;
54261;SDS011;40174;52.364;6.452;2023-03-23T04:48:34;5.63;;;2.42;;
54261;SDS011;40174;52.364;6.452;2023-03-23T04:51:10;5.80;;;2.42;;
54261;SDS011;40174;52.364;6.452;2023-03-23T04:53:39;6.10;;;2.25;;
54261;SDS011;40174;52.364;6.452;2023-03-23T04:56:07;6.85;;;2.53;;
54261;SDS011;40174;52.364;6.452;2023-03-23T04:58:41;4.30;;;1.92;;
54261;SDS011;40174;52.364;6.452;2023-03-23T05:01:19;6.18;;;2.58;;
54261;SDS011;40174;52.364;6.452;2023-03-23T05:04:00;4.88;;;2.00;;
54261;SDS011;40174;52.364;6.452;2023-03-23T05:06:28;6.10;;;3.22;;
54261;SDS011;40174;52.364;6.452;2023-03-23T05:09:01;7.55;;;2.58;;
54261;SDS011;40174;52.364;6.452;2023-03-23T05:11:29;6.18;;;2.70;;
54261;SDS011;40174;52.364;6.452;2023-03-23T05:13:58;7.45;;;2.92;;
54261;SDS011;40174;52.364;6.452;2023-03-23T05:16:24;5.30;;;2.35;;
54261;SDS011;40174;52.364;6.452;2023-03-23T05:18:54;4.70;;;2.05;;
54261;SDS011;40174;52.364;6.452;2023-03-23T05:21:22;6.38;;;2.30;;
54261;SDS011;40174;52.364;6.452;2023-03-23T05:23:54;5.18;;;2.10;;
54261;SDS011;40174;52.364;6.452;2023-03-23T05:26:26;6.55;;;2.38;;
54261;SDS011;40174;52.364;6.452;2023-03-23T05:28:57;7.15;;;2.15;;
54261;SDS011;40174;52.364;6.452;2023-03-23T05:31:38;7.13;;;3.08;;
54261;SDS011;40174;52.364;6.452;2023-03-23T05:34:05;6.72;;;2.00;;
54261;SDS011;40174;52.364;6.452;2023-03-23T05:36:38;3.85;;;2.10;;
54261;SDS011;40174;52.364;6.452;2023-03-23T05:39:24;4.90;;;2.55;;
54261;SDS011;40174;52.364;6.452;2023-03-23T05:42:07;5.20;;;2.20;;
54261;SDS011;40174;52.364;6.452;2023-03-23T05:44:44;5.03;;;2.17;;
54261;SDS011;40174;52.364;6.452;2023-03-23T05:47:10;3.55;;;1.75;;
54261;SDS011;40174;52.364;6.452;2023-03-23T05:49:40;8.07;;;2.63;;
54261;SDS011;40174;52.364;6.452;2023-03-23T05:52:11;5.10;;;1.90;;
54261;SDS011;40174;52.364;6.452;2023-03-23T05:54:40;3.72;;;1.67;;
54261;SDS011;40174;52.364;6.452;2023-03-23T05:57:08;6.38;;;2.15;;
54261;SDS011;40174;52.364;6.452;2023-03-23T05:59:48;4.85;;;2.00;;
54261;SDS011;40174;52.364;6.452;2023-03-23T06:02:20;4.95;;;1.60;;
54261;SDS011;40174;52.364;6.452;2023-03-23T06:04:49;5.20;;;1.63;;
54261;SDS011;40174;52.364;6.452;2023-03-23T06:07:24;4.60;;;2.05;;
54261;SDS011;40174;52.364;6.452;2023-03-23T06:09:59;6.75;;;2.17;;
54261;SDS011;40174;52.364;6.452;2023-03-23T06:12:37;5.50;;;1.95;;
54261;SDS011;40174;52.364;6.452;2023-03-23T06:15:18;5.18;;;2.15;;
54261;SDS011;40174;52.364;6.452;2023-03-23T06:18:04;7.50;;;1.70;;
54261;SDS011;40174;52.364;6.452;2023-03-23T06:20:47;9.07;;;2.30;;
54261;SDS011;40174;52.364;6.452;2023-03-23T06:23:25;4.65;;;2.30;;
54261;SDS011;40174;52.364;6.452;2023-03-23T06:25:57;2.63;;;1.45;;
54261;SDS011;40174;52.364;6.452;2023-03-23T06:28:27;11.63;;;2.20;;
54261;SDS011;40174;52.364;6.452;2023-03-23T06:30:54;5.78;;;2.03;;
54261;SDS011;40174;52.364;6.452;2023-03-23T06:33:21;8.27;;;1.98;;
54261;SDS011;40174;52.364;6.452;2023-03-23T06:36:09;7.70;;;2.08;;
54261;SDS011;40174;52.364;6.452;2023-03-23T06:38:52;5.95;;;1.60;;
54261;SDS011;40174;52.364;6.452;2023-03-23T06:41:32;3.63;;;1.05;;
54261;SDS011;40174;52.364;6.452;2023-03-23T06:43:59;3.42;;;1.00;;
54261;SDS011;40174;52.364;6.452;2023-03-23T06:46:29;4.00;;;1.02;;
54261;SDS011;40174;52.364;6.452;2023-03-23T06:49:16;6.13;;;0.80;;
54261;SDS011;40174;52.364;6.452;2023-03-23T06:51:49;3.90;;;1.00;;
54261;SDS011;40174;52.364;6.452;2023-03-23T06:54:16;4.03;;;0.90;;
54261;SDS011;40174;52.364;6.452;2023-03-23T06:56:45;3.72;;;0.85;;
54261;SDS011;40174;52.364;6.452;2023-03-23T06:59:13;4.15;;;0.88;;
54261;SDS011;40174;52.364;6.452;2023-03-23T07:01:41;1.15;;;0.70;;
54261;SDS011;40174;52.364;6.452;2023-03-23T07:04:08;5.22;;;0.68;;
54261;SDS011;40174;52.364;6.452;2023-03-23T07:06:47;3.05;;;0.60;;
54261;SDS011;40174;52.364;6.452;2023-03-23T07:09:14;1.63;;;0.60;;
54261;SDS011;40174;52.364;6.452;2023-03-23T07:11:41;3.47;;;0.70;;
54261;SDS011;40174;52.364;6.452;2023-03-23T07:14:19;4.75;;;0.93;;
54261;SDS011;40174;52.364;6.452;2023-03-23T07:16:47;5.75;;;1.40;;
54261;SDS011;40174;52.364;6.452;2023-03-23T07:19:14;5.07;;;1.15;;
54261;SDS011;40174;52.364;6.452;2023-03-23T07:21:41;3.60;;;1.00;;
54261;SDS011;40174;52.364;6.452;2023-03-23T07:24:09;4.95;;;1.17;;
54261;SDS011;40174;52.364;6.452;2023-03-23T07:26:59;6.03;;;1.20;;
54261;SDS011;40174;52.364;6.452;2023-03-23T07:29:28;3.42;;;1.10;;
54261;SDS011;40174;52.364;6.452;2023-03-23T07:32:05;8.32;;;1.27;;
54261;SDS011;40174;52.364;6.452;2023-03-23T07:34:32;3.95;;;0.90;;
54261;SDS011;40174;52.364;6.452;2023-03-23T07:37:19;5.22;;;1.25;;
54261;SDS011;40174;52.364;6.452;2023-03-23T07:39:47;4.07;;;0.60;;
54261;SDS011;40174;52.364;6.452;2023-03-23T07:42:15;3.72;;;0.82;;
54261;SDS011;40174;52.364;6.452;2023-03-23T07:44:49;3.10;;;0.60;;
54261;SDS011;40174;52.364;6.452;2023-03-23T07:47:16;3.58;;;0.70;;
54261;SDS011;40174;52.364;6.452;2023-03-23T07:49:46;3.05;;;0.82;;
54261;SDS011;40174;52.364;6.452;2023-03-23T07:52:23;4.35;;;0.82;;
54261;SDS011;40174;52.364;6.452;2023-03-23T07:54:50;1.80;;;1.00;;
54261;SDS011;40174;52.364;6.452;2023-03-23T07:57:27;3.78;;;0.93;;
54261;SDS011;40174;52.364;6.452;2023-03-23T07:59:57;8.57;;;0.98;;
54261;SDS011;40174;52.364;6.452;2023-03-23T08:02:26;5.95;;;1.60;;
54261;SDS011;40174;52.364;6.452;2023-03-23T08:05:12;3.50;;;0.90;;
54261;SDS011;40174;52.364;6.452;2023-03-23T08:08:02;6.15;;;1.40;;
54261;SDS011;40174;52.364;6.452;2023-03-23T08:10:56;9.18;;;1.25;;
54261;SDS011;40174;52.364;6.452;2023-03-23T08:13:42;5.57;;;1.30;;
54261;SDS011;40174;52.364;6.452;2023-03-23T08:16:29;7.72;;;1.45;;
54261;SDS011;40174;52.364;6.452;2023-03-23T08:18:55;5.47;;;1.30;;
54261;SDS011;40174;52.364;6.452;2023-03-23T08:21:41;2.83;;;1.20;;
54261;SDS011;40174;52.364;6.452;2023-03-23T08:24:20;6.97;;;1.52;;
54261;SDS011;40174;52.364;6.452;2023-03-23T08:27:15;4.22;;;1.60;;
54261;SDS011;40174;52.364;6.452;2023-03-23T08:30:12;6.18;;;1.67;;
54261;SDS011;40174;52.364;6.452;2023-03-23T08:32:45;6.72;;;1.88;;
54261;SDS011;40174;52.364;6.452;2023-03-23T08:35:31;5.55;;;1.73;;
54261;SDS011;40174;52.364;6.452;2023-03-23T08:38:31;7.47;;;2.10;;
54261;SDS011;40174;52.364;6.452;2023-03-23T08:41:24;7.68;;;1.83;;
54261;SDS011;40174;52.364;6.452;2023-03-23T08:44:03;4.97;;;1.77;;
54261;SDS011;40174;52.364;6.452;2023-03-23T08:46:30;6.53;;;1.30;;
54261;SDS011;40174;52.364;6.452;2023-03-23T08:49:11;7.25;;;1.63;;
54261;SDS011;40174;52.364;6.452;2023-03-23T08:52:16;8.98;;;2.05;;
54261;SDS011;40174;52.364;6.452;2023-03-23T08:54:51;11.30;;;1.73;;
54261;SDS011;40174;52.364;6.452;2023-03-23T08:57:37;3.42;;;1.60;;
54261;SDS011;40174;52.364;6.452;2023-03-23T09:00:23;4.35;;;1.13;;
54261;SDS011;40174;52.364;6.452;2023-03-23T09:03:14;4.07;;;1.40;;
54261;SDS011;40174;52.364;6.452;2023-03-23T09:06:05;5.47;;;1.50;;
54261;SDS011;40174;52.364;6.452;2023-03-23T09:11:24;6.35;;;1.50;;
54261;SDS011;40174;52.364;6.452;2023-03-23T09:13:50;5.85;;;1.63;;
54261;SDS011;40174;52.364;6.452;2023-03-23T09:16:17;9.20;;;2.03;;
54261;SDS011;40174;52.364;6.452;2023-03-23T09:18:44;5.93;;;1.90;;
54261;SDS011;40174;52.364;6.452;2023-03-23T09:21:13;4.88;;;1.48;;
54261;SDS011;40174;52.364;6.452;2023-03-23T09:23:39;6.25;;;1.60;;
54261;SDS011;40174;52.364;6.452;2023-03-23T09:26:09;3.90;;;1.38;;
54261;SDS011;40174;52.364;6.452;2023-03-23T09:28:36;7.15;;;1.52;;
54261;SDS011;40174;52.364;6.452;2023-03-23T09:31:02;7.18;;;1.58;;
54261;SDS011;40174;52.364;6.452;2023-03-23T09:33:29;3.95;;;1.20;;
54261;SDS011;40174;52.364;6.452;2023-03-23T09:35:59;4.38;;;1.50;;
54261;SDS011;40174;52.364;6.452;2023-03-23T09:38:31;5.22;;;1.35;;
54261;SDS011;40174;52.364;6.452;2023-03-23T09:40:59;4.13;;;1.00;;
54261;SDS011;40174;52.364;6.452;2023-03-23T09:43:38;6.55;;;1.27;;
54261;SDS011;40174;52.364;6.452;2023-03-23T09:46:22;5.28;;;1.30;;
54261;SDS011;40174;52.364;6.452;2023-03-23T09:49:08;6.43;;;1.42;;
54261;SDS011;40174;52.364;6.452;2023-03-23T09:51:40;3.00;;;1.40;;
54261;SDS011;40174;52.364;6.452;2023-03-23T09:54:13;8.85;;;1.30;;
54261;SDS011;40174;52.364;6.452;2023-03-23T09:56:45;4.57;;;1.20;;
54261;SDS011;40174;52.364;6.452;2023-03-23T09:59:16;4.97;;;1.10;;
54261;SDS011;40174;52.364;6.452;2023-03-23T10:01:47;6.78;;;1.60;;
54261;SDS011;40174;52.364;6.452;2023-03-23T10:04:22;6.25;;;1.35;;
54261;SDS011;40174;52.364;6.452;2023-03-23T10:06:53;4.85;;;1.10;;
54261;SDS011;40174;52.364;6.452;2023-03-23T10:09:27;5.00;;;1.20;;
54261;SDS011;40174;52.364;6.452;2023-03-23T10:11:56;10.25;;;1.45;;
54261;SDS011;40174;52.364;6.452;2023-03-23T10:14:32;3.55;;;1.30;;
54261;SDS011;40174;52.364;6.452;2023-03-23T10:17:09;6.25;;;1.40;;
54261;SDS011;40174;52.364;6.452;2023-03-23T10:19:42;5.70;;;1.63;;
54261;SDS011;40174;52.364;6.452;2023-03-23T10:22:14;2.05;;;0.80;;
54261;SDS011;40174;52.364;6.452;2023-03-23T10:24:51;3.42;;;1.00;;
54261;SDS011;40174;52.364;6.452;2023-03-23T10:27:50;6.88;;;1.23;;
54261;SDS011;40174;52.364;6.452;2023-03-23T10:30:26;8.75;;;1.60;;
54261;SDS011;40174;52.364;6.452;2023-03-23T10:32:56;3.75;;;1.02;;
54261;SDS011;40174;52.364;6.452;2023-03-23T10:35:28;9.02;;;1.30;;
54261;SDS011;40174;52.364;6.452;2023-03-23T10:38:06;4.72;;;1.35;;
54261;SDS011;40174;52.364;6.452;2023-03-23T10:40:45;7.55;;;1.20;;
54261;SDS011;40174;52.364;6.452;2023-03-23T10:43:14;8.35;;;1.60;;
54261;SDS011;40174;52.364;6.452;2023-03-23T10:45:41;6.25;;;1.60;;
54261;SDS011;40174;52.364;6.452;2023-03-23T10:48:11;5.93;;;1.17;;
54261;SDS011;40174;52.364;6.452;2023-03-23T10:50:43;8.02;;;1.08;;
54261;SDS011;40174;52.364;6.452;2023-03-23T10:53:13;8.90;;;1.90;;
54261;SDS011;40174;52.364;6.452;2023-03-23T10:55:44;7.18;;;1.55;;
54261;SDS011;40174;52.364;6.452;2023-03-23T10:58:21;4.40;;;1.38;;
54261;SDS011;40174;52.364;6.452;2023-03-23T11:00:50;9.30;;;1.13;;
54261;SDS011;40174;52.364;6.452;2023-03-23T11:03:22;5.28;;;1.25;;
54261;SDS011;40174;52.364;6.452;2023-03-23T11:06:00;7.68;;;1.00;;
54261;SDS011;40174;52.364;6.452;2023-03-23T11:08:30;6.60;;;1.42;;
54261;SDS011;40174;52.364;6.452;2023-03-23T11:11:10;7.65;;;1.40;;
54261;SDS011;40174;52.364;6.452;2023-03-23T11:13:39;3.58;;;1.00;;
54261;SDS011;40174;52.364;6.452;2023-03-23T11:16:10;9.75;;;1.10;;
54261;SDS011;40174;52.364;6.452;2023-03-23T11:18:47;3.92;;;0.90;;
54261;SDS011;40174;52.364;6.452;2023-03-23T11:21:14;6.70;;;1.40;;
54261;SDS011;40174;52.364;6.452;2023-03-23T11:23:42;4.13;;;1.15;;
54261;SDS011;40174;52.364;6.452;2023-03-23T11:26:14;5.13;;;1.05;;
54261;SDS011;40174;52.364;6.452;2023-03-23T11:28:46;10.35;;;1.58;;
54261;SDS011;40174;52.364;6.452;2023-03-23T11:31:20;7.55;;;1.00;;
54261;SDS011;40174;52.364;6.452;2023-03-23T11:33:50;9.00;;;0.90;;
54261;SDS011;40174;52.364;6.452;2023-03-23T11:36:20;6.82;;;1.77;;
54261;SDS011;40174;52.364;6.452;2023-03-23T11:38:51;9.95;;;1.27;;
54261;SDS011;40174;52.364;6.452;2023-03-23T11:41:22;6.50;;;1.25;;
54261;SDS011;40174;52.364;6.452;2023-03-23T11:43:51;5.45;;;1.05;;
54261;SDS011;40174;52.364;6.452;2023-03-23T11:46:22;5.95;;;1.10;;
54261;SDS011;40174;52.364;6.452;2023-03-23T11:48:59;6.93;;;1.40;;
54261;SDS011;40174;52.364;6.452;2023-03-23T11:51:30;9.07;;;1.10;;
54261;SDS011;40174;52.364;6.452;2023-03-23T11:54:04;7.15;;;1.00;;
54261;SDS011;40174;52.364;6.452;2023-03-23T11:56:41;7.95;;;1.13;;
54261;SDS011;40174;52.364;6.452;2023-03-23T11:59:11;2.47;;;0.65;;
54261;SDS011;40174;52.364;6.452;2023-03-23T12:01:50;6.22;;;1.15;;
54261;SDS011;40174;52.364;6.452;2023-03-23T12:04:35;8.68;;;1.20;;
54261;SDS011;40174;52.364;6.452;2023-03-23T12:10:08;4.75;;;0.90;;
54261;SDS011;40174;52.364;6.452;2023-03-23T12:12:44;8.02;;;1.20;;
54261;SDS011;40174;52.364;6.452;2023-03-23T12:15:21;5.72;;;1.00;;
54261;SDS011;40174;52.364;6.452;2023-03-23T12:17:56;7.57;;;1.23;;
54261;SDS011;40174;52.364;6.452;2023-03-23T12:20:33;6.38;;;0.95;;
54261;SDS011;40174;52.364;6.452;2023-03-23T12:23:13;4.68;;;0.60;;
54261;SDS011;40174;52.364;6.452;2023-03-23T12:25:59;5.90;;;0.93;;
54261;SDS011;40174;52.364;6.452;2023-03-23T12:28:41;4.32;;;0.90;;
54261;SDS011;40174;52.364;6.452;2023-03-23T12:31:18;4.97;;;1.27;;
54261;SDS011;40174;52.364;6.452;2023-03-23T12:33:53;2.75;;;0.60;;
54261;SDS011;40174;52.364;6.452;2023-03-23T12:36:26;3.22;;;0.95;;
54261;SDS011;40174;52.364;6.452;2023-03-23T12:39:08;3.35;;;0.85;;
54261;SDS011;40174;52.364;6.452;2023-03-23T12:41:58;3.65;;;0.75;;
54261;SDS011;40174;52.364;6.452;2023-03-23T12:44:34;4.43;;;0.88;;
54261;SDS011;40174;52.364;6.452;2023-03-23T12:49:59;7.78;;;1.00;;
54261;SDS011;40174;52.364;6.452;2023-03-23T12:52:30;5.55;;;0.80;;
54261;SDS011;40174;52.364;6.452;2023-03-23T12:55:05;5.65;;;0.93;;
54261;SDS011;40174;52.364;6.452;2023-03-23T12:57:43;6.50;;;1.23;;
54261;SDS011;40174;52.364;6.452;2023-03-23T13:00:19;5.03;;;1.17;;
54261;SDS011;40174;52.364;6.452;2023-03-23T13:02:50;4.50;;;0.63;;
54261;SDS011;40174;52.364;6.452;2023-03-23T13:05:27;6.28;;;0.85;;
54261;SDS011;40174;52.364;6.452;2023-03-23T13:08:09;4.05;;;0.90;;
54261;SDS011;40174;52.364;6.452;2023-03-23T13:10:42;7.60;;;1.17;;
54261;SDS011;40174;52.364;6.452;2023-03-23T13:13:13;2.78;;;1.13;;
54261;SDS011;40174;52.364;6.452;2023-03-23T13:15:48;3.25;;;0.60;;
54261;SDS011;40174;52.364;6.452;2023-03-23T13:18:25;4.07;;;0.63;;
54261;SDS011;40174;52.364;6.452;2023-03-23T13:21:04;0.95;;;0.57;;
54261;SDS011;40174;52.364;6.452;2023-03-23T13:23:35;4.80;;;0.50;;
54261;SDS011;40174;52.364;6.452;2023-03-23T13:26:06;2.25;;;0.68;;
54261;SDS011;40174;52.364;6.452;2023-03-23T13:28:46;2.05;;;0.40;;
54261;SDS011;40174;52.364;6.452;2023-03-23T13:31:26;5.78;;;0.95;;
54261;SDS011;40174;52.364;6.452;2023-03-23T13:33:59;2.22;;;0.63;;
54261;SDS011;40174;52.364;6.452;2023-03-23T13:36:30;4.40;;;0.80;;
54261;SDS011;40174;52.364;6.452;2023-03-23T13:39:00;8.55;;;0.90;;
54261;SDS011;40174;52.364;6.452;2023-03-23T13:41:32;8.68;;;1.15;;
54261;SDS011;40174;52.364;6.452;2023-03-23T13:46:54;4.07;;;0.73;;
54261;SDS011;40174;52.364;6.452;2023-03-23T13:49:23;6.63;;;1.08;;
54261;SDS011;40174;52.364;6.452;2023-03-23T13:54:48;6.55;;;1.15;;
54261;SDS011;40174;52.364;6.452;2023-03-23T13:57:34;2.90;;;0.93;;
54261;SDS011;40174;52.364;6.452;2023-03-23T14:03:14;2.80;;;0.70;;
54261;SDS011;40174;52.364;6.452;2023-03-23T14:05:45;4.15;;;0.82;;
54261;SDS011;40174;52.364;6.452;2023-03-23T14:08:20;4.65;;;1.00;;
54261;SDS011;40174;52.364;6.452;2023-03-23T14:10:50;3.83;;;1.02;;
54261;SDS011;40174;52.364;6.452;2023-03-23T14:13:23;3.88;;;0.77;;
54261;SDS011;40174;52.364;6.452;2023-03-23T14:15:56;7.80;;;1.27;;
54261;SDS011;40174;52.364;6.452;2023-03-23T14:18:27;5.50;;;1.00;;
54261;SDS011;40174;52.364;6.452;2023-03-23T14:20:57;3.60;;;0.90;;
54261;SDS011;40174;52.364;6.452;2023-03-23T14:23:25;4.13;;;0.55;;
54261;SDS011;40174;52.364;6.452;2023-03-23T14:25:56;3.30;;;0.95;;
54261;SDS011;40174;52.364;6.452;2023-03-23T14:28:30;4.72;;;0.90;;
54261;SDS011;40174;52.364;6.452;2023-03-23T14:30:57;3.55;;;0.88;;
54261;SDS011;40174;52.364;6.452;2023-03-23T14:33:25;8.13;;;0.73;;
54261;SDS011;40174;52.364;6.452;2023-03-23T14:35:53;3.50;;;0.90;;
54261;SDS011;40174;52.364;6.452;2023-03-23T14:38:24;3.00;;;0.85;;
54261;SDS011;40174;52.364;6.452;2023-03-23T14:40:59;4.00;;;0.50;;
54261;SDS011;40174;52.364;6.452;2023-03-23T14:43:28;5.18;;;0.70;;
54261;SDS011;40174;52.364;6.452;2023-03-23T14:45:55;6.45;;;0.90;;
54261;SDS011;40174;52.364;6.452;2023-03-23T14:48:24;3.63;;;0.50;;
54261;SDS011;40174;52.364;6.452;2023-03-23T14:50:56;6.50;;;1.27;;
54261;SDS011;40174;52.364;6.452;2023-03-23T14:53:24;3.13;;;1.02;;
54261;SDS011;40174;52.364;6.452;2023-03-23T14:55:52;4.50;;;0.68;;
54261;SDS011;40174;52.364;6.452;2023-03-23T14:58:22;4.82;;;0.90;;
54261;SDS011;40174;52.364;6.452;2023-03-23T15:00:52;5.57;;;1.23;;
54261;SDS011;40174;52.364;6.452;2023-03-23T15:03:21;5.28;;;0.70;;
54261;SDS011;40174;52.364;6.452;2023-03-23T15:05:50;3.38;;;0.82;;
54261;SDS011;40174;52.364;6.452;2023-03-23T15:08:22;4.22;;;0.63;;
54261;SDS011;40174;52.364;6.452;2023-03-23T15:10:56;5.38;;;0.75;;
54261;SDS011;40174;52.364;6.452;2023-03-23T15:13:29;1.90;;;0.50;;
54261;SDS011;40174;52.364;6.452;2023-03-23T15:16:06;5.03;;;0.60;;
54261;SDS011;40174;52.364;6.452;2023-03-23T15:18:40;1.75;;;0.63;;
54261;SDS011;40174;52.364;6.452;2023-03-23T15:21:21;3.22;;;0.75;;
54261;SDS011;40174;52.364;6.452;2023-03-23T15:23:50;2.47;;;0.55;;
54261;SDS011;40174;52.364;6.452;2023-03-23T15:26:27;1.30;;;0.60;;
54261;SDS011;40174;52.364;6.452;2023-03-23T15:31:46;5.18;;;0.70;;
54261;SDS011;40174;52.364;6.452;2023-03-23T15:34:16;4.20;;;0.88;;
54261;SDS011;40174;52.364;6.452;2023-03-23T15:36:58;5.78;;;1.02;;
54261;SDS011;40174;52.364;6.452;2023-03-23T15:39:26;2.58;;;0.70;;
54261;SDS011;40174;52.364;6.452;2023-03-23T15:41:54;4.55;;;0.98;;
54261;SDS011;40174;52.364;6.452;2023-03-23T15:44:26;3.17;;;0.98;;
54261;SDS011;40174;52.364;6.452;2023-03-23T15:47:03;4.03;;;0.98;;
54261;SDS011;40174;52.364;6.452;2023-03-23T15:49:38;3.22;;;0.93;;
54261;SDS011;40174;52.364;6.452;2023-03-23T15:52:08;5.15;;;1.15;;
54261;SDS011;40174;52.364;6.452;2023-03-23T15:54:36;3.83;;;0.77;;